Flight Track Log - Related Links

Times and Time Zones

All times are in EST time to prevent confusion due to time zone crossing. See the FAO2961 flight status page for this flight to view local times or setup timezone preferences in your user account.

Time Position Orientation Groundspeed Altitude Reporting Facility
EST Latitude Longitude Course Direction KTS MPH feet Rate Location/Type
Wed 01:47:54 AM 40.9208 -85.2250 167° South 202 232 3,700  Level Chicago Center
Wed 01:48:54 AM 40.8511 -85.2036 167° South 256 295 7,500 3,273 Climbing Chicago Center
Wed 01:49:55 AM 40.7747 -85.1781 166° South 269 310 10,300 2,182 Climbing Chicago Center
Wed 01:50:55 AM 40.6817 -85.1489 167° South 322 371 11,900 2,073 Climbing Chicago Center
Wed 01:51:45 AM 40.6028 -85.1214 165° South 365 420 14,100 2,564 Climbing Indianapolis Center
Wed 01:52:45 AM 40.4992 -85.0883 166° South 380 437 16,600 2,100 Climbing Indianapolis Center
Wed 01:53:00 AM 39.9756 -84.9258 167° South  Level Estimated
Wed 01:53:45 AM 40.3900 -85.0531 166° South 396 456 18,300  Level Indianapolis Center
Wed 01:54:46 AM 40.2769 -85.0117 164° South 416 479 20,400 1,884 Climbing Indianapolis Center
Wed 01:55:46 AM 40.1603 -84.9739 166° South 428 493 22,100 1,686 Climbing Indianapolis Center
Wed 01:56:47 AM 40.0408 -84.9342 166° South 439 505 23,800 1,835 Climbing Indianapolis Center
Wed 01:57:47 AM 39.9125 -84.8908 165° South 449 517 25,800 1,700 Climbing Indianapolis Center
Wed 01:58:47 AM 39.7919 -84.8519 166° South 449 517 27,200 1,488 Climbing Indianapolis Center
Wed 01:59:48 AM 39.6711 -84.7972 161° South 459 528 28,800 1,488 Climbing Indianapolis Center
Wed 02:00:48 AM 39.5522 -84.7400 160° South 459 528 30,200 1,100 Climbing Indianapolis Center
Wed 02:01:48 AM 39.4344 -84.6844 160° South 454 522 31,000 397 Climbing Indianapolis Center
Wed 02:02:49 AM 39.2914 -84.6283 163° South 449 517 31,000  Level Indianapolis Center
Wed 02:03:49 AM 39.1750 -84.6219 178° South 424 488 31,000  Level Indianapolis Center
Wed 02:04:49 AM 39.0581 -84.6192 179° South 421 484 31,000  Level Indianapolis Center
Wed 02:05:50 AM 38.9431 -84.6147 178° South 416 479 31,000  Level Indianapolis Center
Wed 02:06:50 AM 38.8294 -84.6108 178° South 416 479 31,000  Level Indianapolis Center
Wed 02:07:50 AM 38.7128 -84.6067 178° South 422 486 31,000  Level Indianapolis Center
Wed 02:08:51 AM 38.5961 -84.6047 179° South 417 480 31,000 298 Level Indianapolis Center
Wed 02:09:51 AM 38.4803 -84.6003 178° South 417 480 31,600 595 Climbing Indianapolis Center
Wed 02:10:52 AM 38.3653 -84.5956 178° South 415 478 32,200 694 Climbing Indianapolis Center
Wed 02:11:52 AM 38.2508 -84.5906 178° South 413 475 33,000 400 Climbing Indianapolis Center
Wed 02:12:52 AM 38.1344 -84.5872 179° South 417 480 33,000  Level Indianapolis Center
Wed 02:13:52 AM 38.0197 -84.5825 178° South 411 473 33,000  Level Indianapolis Center
Wed 02:14:53 AM 37.9033 -84.5786 178° South 416 479 33,000  Level Indianapolis Center
Wed 02:15:53 AM 37.7892 -84.5739 178° South 411 473 33,000  Level Indianapolis Center
Wed 02:16:53 AM 37.6728 -84.5689 178° South 415 478 33,000  Level Indianapolis Center
Wed 02:17:54 AM 37.5542 -84.5664 179° South 423 487 33,000  Level Indianapolis Center
Wed 02:18:54 AM 37.4400 -84.5619 178° South 412 474 33,000  Level Indianapolis Center
Wed 02:19:54 AM 37.3228 -84.5589 179° South 417 480 33,000  Level Indianapolis Center
Wed 02:20:54 AM 37.2072 -84.5547 178° South 416 479 33,000  Level Indianapolis Center
Wed 02:21:55 AM 37.0894 -84.5500 178° South 421 484 33,000  Level Indianapolis Center
Wed 02:22:55 AM 36.9806 -84.5467 179° South 421 484 33,000  Level Indianapolis Center
Wed 02:23:55 AM 36.8633 -84.5428 178° South 419 482 33,000  Level Indianapolis Center
Wed 02:24:55 AM 36.7453 -84.5381 178° South 424 488 33,000  Level Indianapolis Center
Wed 02:25:56 AM 36.6272 -84.5342 178° South 422 486 33,000  Level Indianapolis Center
Wed 02:26:56 AM 36.5089 -84.5303 178° South 424 488 33,000  Level Indianapolis Center
Wed 02:27:56 AM 36.3914 -84.5250 178° South 421 484 33,000  Level Indianapolis Center
Wed 02:28:56 AM 36.2747 -84.5236 179° South 418 481 33,000  Level Indianapolis Center
Wed 02:29:56 AM 36.1575 -84.5183 178° South 419 482 33,000  Level Indianapolis Center
Wed 02:30:39 AM 36.0553 -84.5164 179° South 421 484 33,000  Level Atlanta Center
Wed 02:31:39 AM 35.9386 -84.5106 178° South 421 484 33,000  Level Atlanta Center
Wed 02:32:39 AM 35.8217 -84.5075 179° South 421 484 33,000  Level Atlanta Center
Wed 02:33:39 AM 35.7028 -84.5042 179° South 421 484 33,000  Level Atlanta Center
Wed 02:34:39 AM 35.5861 -84.5008 179° South 421 484 33,000  Level Atlanta Center
Wed 02:35:39 AM 35.4692 -84.4978 179° South 421 484 33,000  Level Atlanta Center
Wed 02:36:39 AM 35.3481 -84.4919 178° South 421 484 33,000  Level Atlanta Center
Wed 02:37:39 AM 35.2333 -84.4889 179° South 421 484 33,000  Level Atlanta Center
Wed 02:38:39 AM 35.1167 -84.4856 179° South 421 484 33,000  Level Atlanta Center
Wed 02:39:39 AM 34.9997 -84.4825 179° South 421 484 33,000  Level Atlanta Center
Wed 02:40:39 AM 34.8850 -84.4744 177° South 421 484 33,000  Level Atlanta Center
Wed 02:41:39 AM 34.7681 -84.4736 180° South 421 484 33,000  Level Atlanta Center
Wed 02:42:39 AM 34.6514 -84.4681 178° South 421 484 33,000  Level Atlanta Center
Wed 02:43:39 AM 34.5450 -84.4650 179° South 421 484 33,000  Level Atlanta Center
Wed 02:44:39 AM 34.4281 -84.4594 178° South 421 484 33,000  Level Atlanta Center
Wed 02:45:39 AM 34.3111 -84.4564 179° South 421 484 33,000  Level Atlanta Center
Wed 02:46:39 AM 34.1922 -84.4531 179° South 421 484 33,000  Level Atlanta Center
Wed 02:47:39 AM 34.0692 -84.4525 180° South 433 498 33,000  Level Atlanta Center
Wed 02:48:39 AM 33.9522 -84.4469 178° South 433 498 33,000  Level Atlanta Center
Wed 02:49:39 AM 33.8375 -84.4439 179° South 433 498 33,000  Level Atlanta Center
Wed 02:50:39 AM 33.7183 -84.4383 178° South 426 490 33,000  Level Atlanta Center
Wed 02:51:39 AM 33.5933 -84.4303 177° South 419 482 33,000  Level Atlanta Center
Wed 02:52:39 AM 33.4869 -84.4050 169° South 426 490 33,000  Level Atlanta Center
Wed 02:53:39 AM 33.3681 -84.3794 170° South 426 490 33,000  Level Atlanta Center
Wed 02:54:39 AM 33.2553 -84.3544 169° South 426 490 33,000  Level Atlanta Center
Wed 02:55:39 AM 33.1386 -84.3267 169° South 426 490 33,000  Level Atlanta Center
Wed 02:56:39 AM 33.0239 -84.2989 169° South 426 490 33,000  Level Atlanta Center
Wed 02:57:39 AM 32.9092 -84.2567 163° South 426 490 33,000  Level Atlanta Center
Wed 02:58:39 AM 32.7964 -84.2119 162° South 426 490 33,000  Level Atlanta Center
Wed 02:59:39 AM 32.6900 -84.1622 159° South 426 490 33,000  Level Atlanta Center
Wed 03:00:39 AM 32.5772 -84.1178 162° South 426 490 33,000  Level Atlanta Center
Wed 03:01:39 AM 32.4647 -84.0733 162° South 426 490 33,000  Level Atlanta Center
Wed 03:02:39 AM 32.3561 -84.0314 162° South 421 484 33,000  Level Atlanta Center
Wed 03:03:39 AM 32.2433 -83.9872 162° South 421 484 33,000  Level Atlanta Center
Wed 03:05:45 AM 32.0019 -83.8897 161° South 422 486 33,000  Level Jacksonville Center
Wed 03:06:45 AM 31.8914 -83.8469 162° South 422 486 33,000  Level Jacksonville Center
Wed 03:07:45 AM 31.7853 -83.7994 159° South 422 486 33,000  Level Jacksonville Center
Wed 03:08:45 AM 31.6814 -83.7569 161° South 417 480 33,000  Level Jacksonville Center
Wed 03:09:45 AM 31.5833 -83.7242 164° South 412 474 33,000  Level Jacksonville Center
Wed 03:10:45 AM 31.4731 -83.6842 163° South 412 474 33,000  Level Jacksonville Center
Wed 03:11:45 AM 31.3731 -83.6419 160° South 400 460 33,000  Level Jacksonville Center
Wed 03:12:45 AM 31.2689 -83.6022 162° South 400 460 33,000  Level Jacksonville Center
Wed 03:13:45 AM 31.1667 -83.5628 162° South 395 455 33,000  Level Jacksonville Center
Wed 03:14:45 AM 31.0606 -83.5231 162° South 400 460 33,000  Level Jacksonville Center
Wed 03:15:45 AM 30.9564 -83.4836 162° South 400 460 33,000  Level Jacksonville Center
Wed 03:16:45 AM 30.8542 -83.4419 161° South 400 460 33,000  Level Jacksonville Center
Wed 03:17:45 AM 30.7394 -83.3978 162° South 400 460 33,000  Level Jacksonville Center
Wed 03:18:45 AM 30.6331 -83.3586 162° South 400 460 33,000  Level Jacksonville Center
Wed 03:19:45 AM 30.5267 -83.3169 161° South 400 460 33,000  Level Jacksonville Center
Wed 03:20:45 AM 30.4247 -83.2781 162° South 400 460 33,000 -50 Level Jacksonville Center
Wed 03:21:45 AM 30.3183 -83.2367 161° South 400 460 32,900  Descending Jacksonville Center
Wed 03:22:45 AM 30.2139 -83.1978 162° South 400 460 33,000 50 Climbing Jacksonville Center
Wed 03:23:45 AM 30.1075 -83.1592 163° South 400 460 33,000  Level Jacksonville Center
Wed 03:24:45 AM 30.0117 -83.1228 162° South 400 460 33,000  Level Jacksonville Center
Wed 03:25:45 AM 29.9031 -83.0819 162° South 405 466 33,000  Level Jacksonville Center
Wed 03:26:45 AM 29.7989 -83.0433 162° South 405 466 33,000  Level Jacksonville Center
Wed 03:27:45 AM 29.6922 -83.0050 163° South 400 460 33,000  Level Jacksonville Center
Wed 03:28:45 AM 29.5858 -82.9667 163° South 400 460 33,000  Level Jacksonville Center
Wed 03:29:45 AM 29.4669 -82.9164 160° South 400 460 33,000  Level Jacksonville Center
Wed 03:30:45 AM 29.3606 -82.8783 163° South 400 460 33,000  Level Jacksonville Center
Wed 03:31:45 AM 29.2519 -82.8378 162° South 405 466 33,000 -850 Level Jacksonville Center
Wed 03:32:45 AM 29.1453 -82.7975 162° South 405 466 31,300 -1,800 Descending Jacksonville Center
Wed 03:33:45 AM 29.0431 -82.7594 162° South 413 475 29,400 -1,400 Descending Jacksonville Center
Wed 03:34:45 AM 28.9303 -82.7194 163° South 423 487 28,500 -900 Descending Jacksonville Center
Wed 03:35:45 AM 28.8092 -82.6744 162° South 423 487 27,600 -850 Descending Jacksonville Center
Wed 03:36:45 AM 28.7069 -82.6392 163° South 423 487 26,800 -783 Descending Jacksonville Center
Wed 03:38:49 AM 28.4756 -82.5544 162° South 414 476 25,200 -1,168 Descending Miami Center
Wed 03:39:50 AM 28.3686 -82.5136 161° South 408 470 23,200 -2,083 Descending Miami Center
Wed 03:40:50 AM 28.2575 -82.4750 163° South 407 468 21,000 -2,067 Descending Miami Center
Wed 03:41:49 AM 28.1569 -82.4369 162° South 407 468 19,100 -1,017 Descending Miami Center
Wed 03:42:48 AM 28.0539 -82.4014 163° South 395 455 19,000 -50 Descending Miami Center
Wed 03:43:49 AM 27.9531 -82.3636 162° South 389 448 19,000 -250 Level Miami Center
Wed 03:44:48 AM 27.8481 -82.3256 162° South 389 448 18,500 -1,008 Descending Miami Center
Wed 03:45:48 AM 27.7617 -82.2958 163° South 382 440 17,000 -1,623 Descending Miami Center
Wed 03:46:50 AM 27.6631 -82.2583 161° South 377 434 15,200 -2,033 Descending Miami Center
Wed 03:47:49 AM 27.5600 -82.2228 163° South 368 423 12,900 -1,866 Descending Miami Center
Wed 03:48:49 AM 27.4756 -82.1933 163° South 355 409 11,500 -1,400 Descending Miami Center
Wed 03:49:49 AM 27.3953 -82.1614 161° South 332 382 10,100 -1,311 Descending Miami Center
Wed 03:50:48 AM 27.3169 -82.1367 164° South 308 354 8,900 -1,311 Descending Miami Center
Wed 03:51:48 AM 27.2428 -82.1100 162° South 294 338 7,500 -1,300 Descending Miami Center
Wed 03:52:48 AM 27.1747 -82.0836 161° South 276 318 6,300 -1,350 Descending Miami Center
Wed 03:53:48 AM 27.1067 -82.0597 163° South 269 310 4,800 -1,350 Descending Miami Center
Wed 03:54:48 AM 27.0408 -82.0358 162° South 257 296 3,600 -942 Descending Miami Center
Wed 03:55:49 AM 26.9786 -82.0283 174° South 239 275 2,900 -397 Descending Miami Center
Wed 03:56:49 AM 26.9211 -82.0536 201° Southwest 214 246 2,800 -454 Descending Miami Center
Wed 03:57:48 AM 26.8822 -82.0939 223° Southwest 224 258 2,000 -403 Descending Miami Center
Wed 03:58:48 AM 26.8336 -82.1125 199° South 179 206 2,000 -50 Level Miami Center
Wed 03:59:49 AM 26.8161 -82.0722 116° Southeast 126 145 1,900 -98 Descending Miami Center

Login

Don't have an account? Register now (free) for customized features, flight alerts, and more!